Papaaloa, Hawaii
Current Conditions -  °F | °C
As of 1:59 AM on Thursday 23 Oct 2014 (Local Time) from PHTO Reporting Station
Light Rain Light Rain  
Wind Chill: 73°   Ceiling: 3400
Heat Index: 73°   Visibility: 5mi
Dew Point: 71°   Wind: 8mph
Humidity: 93%   Direction: 220°SW
Pressure: 30"   Gusts: NA
Location:  19.97°N, 155.22°W
Report Text: PHTO 231159Z 22007KT 5SM -RA BR SCT020 OVC034 23/22 A3000 RMK AO2 P0001 T02280217
Loading
Personal Weather Stations






























Interactive Weather Map
Tropical Storm Tracking
New forecast layout! Learn more

10-Day Weather Forecast

Advertisements
Track Severe Weather on mobile